Time;durP1;ratioP1;P1;durP2;ratioP2;P2;SDS_P1;SDS_P2;PMS_P1;PMS_P2;Temp;Humidity;BMP_temperature;BMP_pressure;BME280_temperature;BME280_humidity;BME280_pressure;Samples;Min_cycle;Max_cycle;Signal;HPM_P1;HPM_P2
2021/12/27 00:00:23;;;;;;;28.25;20.00;;;8.30;99.90;;;;;;5032834;28;20025;-58
2021/12/27 00:02:52;;;;;;;27.17;19.60;;;8.30;99.90;;;;;;5032662;28;20360;-58
2021/12/27 00:05:18;;;;;;;30.70;20.17;;;8.30;99.90;;;;;;5033003;28;20398;-58
2021/12/27 00:07:49;;;;;;;25.50;19.05;;;8.20;99.90;;;;;;5032866;28;20034;-58
2021/12/27 00:10:15;;;;;;;28.30;19.20;;;8.20;99.90;;;;;;5032290;28;20068;-58
2021/12/27 00:12:40;;;;;;;26.17;19.48;;;8.20;99.90;;;;;;5032410;28;20061;-58
2021/12/27 00:15:07;;;;;;;28.45;19.25;;;8.30;99.90;;;;;;5032408;28;20037;-58
2021/12/27 00:17:33;;;;;;;27.02;19.60;;;8.20;99.90;;;;;;5031783;28;20064;-58
2021/12/27 00:19:58;;;;;;;26.42;19.02;;;8.30;99.90;;;;;;5031975;28;20057;-58
2021/12/27 00:22:24;;;;;;;30.50;19.90;;;8.30;99.90;;;;;;5031837;28;20032;-58
2021/12/27 00:24:50;;;;;;;25.80;18.30;;;8.30;99.90;;;;;;5032050;28;20040;-58
2021/12/27 00:27:17;;;;;;;28.33;19.38;;;8.30;99.90;;;;;;5031952;28;20120;-58
2021/12/27 00:29:44;;;;;;;30.05;19.58;;;8.30;99.90;;;;;;5030403;28;20033;-58
2021/12/27 00:32:09;;;;;;;30.60;20.17;;;8.30;99.90;;;;;;5030100;28;20033;-58
2021/12/27 00:34:38;;;;;;;27.13;18.73;;;8.40;99.90;;;;;;5032178;28;20033;-58
2021/12/27 00:37:08;;;;;;;32.40;19.13;;;8.40;99.90;;;;;;5031833;28;20025;-58
2021/12/27 00:39:34;;;;;;;27.85;18.60;;;8.30;99.90;;;;;;5031109;28;20108;-58
2021/12/27 00:42:01;;;;;;;30.45;19.90;;;8.30;99.90;;;;;;5031452;28;20163;-58
2021/12/27 00:44:27;;;;;;;31.67;20.90;;;8.40;99.90;;;;;;5032066;28;20037;-58
2021/12/27 00:46:52;;;;;;;29.45;20.20;;;8.40;99.90;;;;;;5030373;28;20045;-58
2021/12/27 00:49:19;;;;;;;31.80;20.13;;;8.40;99.90;;;;;;5031962;28;20122;-58
2021/12/27 00:51:44;;;;;;;30.38;20.90;;;8.40;99.90;;;;;;5031944;28;20056;-58
2021/12/27 00:54:10;;;;;;;33.25;20.83;;;8.40;99.90;;;;;;5031137;28;20033;-58
2021/12/27 00:56:36;;;;;;;29.40;19.50;;;8.30;99.90;;;;;;5030250;28;20025;-58
2021/12/27 00:59:01;;;;;;;28.48;19.45;;;8.40;99.90;;;;;;5031581;28;20018;-58
2021/12/27 01:01:27;;;;;;;30.80;19.92;;;8.30;99.90;;;;;;5030908;28;20025;-58
2021/12/27 01:03:53;;;;;;;27.40;19.52;;;8.30;99.90;;;;;;5029988;28;20032;-58
2021/12/27 01:06:18;;;;;;;30.55;20.23;;;8.30;99.90;;;;;;5031325;28;20028;-58
2021/12/27 01:08:44;;;;;;;28.90;18.52;;;8.30;99.90;;;;;;5031104;28;20029;-58
2021/12/27 01:11:35;;;;;;;33.95;20.02;;;8.30;99.90;;;;;;5031154;28;20060;-58
2021/12/27 01:14:10;;;;;;;31.17;19.55;;;8.30;99.90;;;;;;5031212;28;20029;-58
2021/12/27 01:16:37;;;;;;;28.85;18.25;;;8.30;99.90;;;;;;5029980;28;20025;-58
2021/12/27 01:19:05;;;;;;;30.77;21.30;;;8.30;99.90;;;;;;5031052;28;20037;-58
2021/12/27 01:21:30;;;;;;;27.38;19.70;;;8.30;99.90;;;;;;5030729;28;20048;-59
2021/12/27 01:23:56;;;;;;;34.50;21.08;;;8.30;99.90;;;;;;5031560;28;20029;-58
2021/12/27 01:26:22;;;;;;;32.47;20.13;;;8.30;99.90;;;;;;5030669;28;20080;-58
2021/12/27 01:28:48;;;;;;;36.35;21.40;;;8.30;99.90;;;;;;5030910;28;20041;-58
2021/12/27 01:31:14;;;;;;;35.15;21.83;;;8.30;99.90;;;;;;5030752;28;20033;-58
2021/12/27 01:33:40;;;;;;;29.00;20.48;;;8.40;99.90;;;;;;5031415;28;20029;-58
2021/12/27 01:36:07;;;;;;;35.63;20.80;;;8.40;99.90;;;;;;5031460;28;20052;-58
2021/12/27 01:38:37;;;;;;;31.15;18.77;;;8.30;99.90;;;;;;5029991;28;20080;-58
2021/12/27 01:41:04;;;;;;;39.78;22.55;;;8.40;99.90;;;;;;5030017;28;20033;-58
2021/12/27 01:43:32;;;;;;;37.42;22.42;;;8.40;99.90;;;;;;5031421;28;20433;-58
2021/12/27 01:46:10;;;;;;;33.08;19.13;;;8.40;99.90;;;;;;5031232;28;20394;-58
2021/12/27 01:48:39;;;;;;;32.80;20.55;;;8.40;99.90;;;;;;5031244;28;20112;-58
2021/12/27 01:51:10;;;;;;;35.13;20.92;;;8.40;99.90;;;;;;5031317;28;20034;-58
2021/12/27 01:53:38;;;;;;;37.50;20.65;;;8.50;99.90;;;;;;5031150;28;20052;-58
2021/12/27 01:56:06;;;;;;;37.03;19.15;;;8.50;99.90;;;;;;5031380;28;20495;-58
2021/12/27 01:58:33;;;;;;;38.72;23.13;;;8.50;99.90;;;;;;5031093;28;20036;-58
2021/12/27 02:01:00;;;;;;;37.88;20.40;;;8.50;99.90;;;;;;5030960;28;20026;-58
2021/12/27 02:03:28;;;;;;;40.03;22.15;;;8.50;99.90;;;;;;5030883;28;20414;-58
2021/12/27 02:05:54;;;;;;;35.83;20.73;;;8.50;99.90;;;;;;5032497;28;20528;-58
2021/12/27 02:08:20;;;;;;;31.13;20.08;;;8.50;99.90;;;;;;5017076;28;20021;-58
2021/12/27 02:10:46;;;;;;;41.10;20.75;;;8.50;99.90;;;;;;5034750;28;20504;-58
2021/12/27 02:13:12;;;;;;;35.58;20.55;;;8.40;99.90;;;;;;5034838;28;20105;-58
2021/12/27 02:15:37;;;;;;;32.97;20.08;;;8.40;99.90;;;;;;5034428;28;20028;-58
2021/12/27 02:18:04;;;;;;;35.70;21.88;;;8.40;99.90;;;;;;5034861;28;20060;-58
2021/12/27 02:20:34;;;;;;;28.52;18.35;;;8.40;99.90;;;;;;5034231;28;20483;-58
2021/12/27 02:23:02;;;;;;;40.20;22.33;;;8.40;99.90;;;;;;5034205;28;20029;-58
2021/12/27 02:25:33;;;;;;;38.50;19.83;;;8.40;99.90;;;;;;5032930;28;20049;-58
2021/12/27 02:28:01;;;;;;;41.08;20.95;;;8.50;99.90;;;;;;5034021;28;20391;-58
2021/12/27 02:30:27;;;;;;;32.30;20.00;;;8.50;99.90;;;;;;5034456;28;20020;-59
2021/12/27 02:32:54;;;;;;;39.28;23.33;;;8.50;99.90;;;;;;5034535;28;20033;-58
2021/12/27 02:35:25;;;;;;;39.70;20.90;;;8.50;99.90;;;;;;5034344;28;20053;-58
2021/12/27 02:37:52;;;;;;;37.65;23.33;;;8.50;99.90;;;;;;5034294;28;20593;-58
2021/12/27 02:40:19;;;;;;;37.15;21.00;;;8.50;99.90;;;;;;5034529;28;20021;-58
2021/12/27 02:43:13;;;;;;;40.03;22.08;;;8.50;99.90;;;;;;5034152;28;20532;-58
2021/12/27 02:45:49;;;;;;;40.78;22.92;;;8.50;99.90;;;;;;5035107;28;20525;-58
2021/12/27 02:48:16;;;;;;;38.08;21.88;;;8.50;99.90;;;;;;5033466;28;20026;-58
2021/12/27 02:50:44;;;;;;;35.42;21.92;;;8.50;99.90;;;;;;5034308;28;20057;-58
2021/12/27 02:53:10;;;;;;;35.60;20.80;;;8.50;99.90;;;;;;5033821;28;20068;-58
2021/12/27 02:55:36;;;;;;;37.63;21.85;;;8.50;99.90;;;;;;5034001;28;20017;-58
2021/12/27 02:58:03;;;;;;;29.55;19.50;;;8.50;99.90;;;;;;5033906;28;20052;-58
2021/12/27 03:00:35;;;;;;;31.05;19.50;;;8.50;99.90;;;;;;5034342;28;20029;-58
2021/12/27 03:03:01;;;;;;;37.78;22.75;;;8.50;99.90;;;;;;5034091;28;20025;-58
2021/12/27 03:05:28;;;;;;;35.63;21.83;;;8.40;99.90;;;;;;5033913;28;20033;-58
2021/12/27 03:07:55;;;;;;;35.53;21.73;;;8.40;99.90;;;;;;5033430;28;20040;-58
2021/12/27 03:10:24;;;;;;;40.67;22.25;;;8.40;99.90;;;;;;5032045;28;20033;-58
2021/12/27 03:12:51;;;;;;;43.45;22.05;;;8.50;99.90;;;;;;5033502;28;20087;-58
2021/12/27 03:15:19;;;;;;;40.65;21.73;;;8.50;99.90;;;;;;5032099;28;20542;-58
2021/12/27 03:17:46;;;;;;;32.17;20.50;;;8.40;99.90;;;;;;5031140;28;20028;-58
2021/12/27 03:20:14;;;;;;;37.63;21.58;;;8.50;99.90;;;;;;5033333;28;20044;-58
2021/12/27 03:22:41;;;;;;;37.40;21.80;;;8.50;99.90;;;;;;5033202;28;20033;-58
2021/12/27 03:25:11;;;;;;;36.60;22.08;;;8.50;99.90;;;;;;5033439;28;20025;-58
2021/12/27 03:27:38;;;;;;;41.08;22.92;;;8.40;99.90;;;;;;5033174;28;20064;-58
2021/12/27 03:30:19;;;;;;;36.10;23.10;;;8.40;99.90;;;;;;5032035;28;20052;-58
2021/12/27 03:32:45;;;;;;;32.60;20.55;;;8.40;99.90;;;;;;5032593;28;20021;-58
2021/12/27 03:35:15;;;;;;;40.40;23.25;;;8.40;99.90;;;;;;5033413;28;20482;-58
2021/12/27 03:37:44;;;;;;;38.03;23.02;;;8.40;99.90;;;;;;5032124;28;20048;-58
2021/12/27 03:40:13;;;;;;;43.42;23.15;;;8.40;99.90;;;;;;5033375;28;20356;-58
2021/12/27 03:42:39;;;;;;;39.83;23.48;;;8.40;99.90;;;;;;5033748;28;20256;-58
2021/12/27 03:45:06;;;;;;;36.92;22.65;;;8.40;99.90;;;;;;5033506;28;20021;-58
2021/12/27 03:47:32;;;;;;;34.88;20.00;;;8.40;99.90;;;;;;5033415;28;20434;-58
2021/12/27 03:49:58;;;;;;;35.70;21.55;;;8.40;99.90;;;;;;5032253;28;20104;-58
2021/12/27 03:52:24;;;;;;;39.58;23.00;;;8.40;99.90;;;;;;5032496;28;20045;-58
2021/12/27 03:54:49;;;;;;;36.63;20.65;;;8.40;99.90;;;;;;5032982;28;20079;-58
2021/12/27 03:57:16;;;;;;;38.58;22.60;;;8.40;99.90;;;;;;5033165;28;20552;-58
2021/12/27 04:02:11;;;;;;;43.33;23.58;;;8.40;99.90;;;;;;5033011;28;20029;-58
2021/12/27 04:04:38;;;;;;;38.10;21.38;;;8.40;99.90;;;;;;5033038;28;20497;-58
2021/12/27 04:07:04;;;;;;;36.25;21.38;;;8.40;99.90;;;;;;5033143;28;20038;-58
2021/12/27 04:09:30;;;;;;;41.33;23.83;;;8.40;99.90;;;;;;5032860;28;20063;-58
2021/12/27 04:11:55;;;;;;;39.97;23.25;;;8.40;99.90;;;;;;5031670;28;20033;-58
2021/12/27 04:14:21;;;;;;;39.75;22.30;;;8.40;99.90;;;;;;5032790;28;20318;-58
2021/12/27 04:16:47;;;;;;;45.92;22.90;;;8.40;99.90;;;;;;5031314;28;20545;-58
2021/12/27 04:19:13;;;;;;;37.63;21.65;;;8.40;99.90;;;;;;5031967;28;20059;-58
2021/12/27 04:21:39;;;;;;;35.33;19.13;;;8.30;99.90;;;;;;5030901;28;20414;-58
2021/12/27 04:24:05;;;;;;;36.30;21.50;;;8.30;99.90;;;;;;5032430;28;20036;-58
2021/12/27 04:26:31;;;;;;;35.90;21.60;;;8.30;99.90;;;;;;5030772;28;20179;-58
2021/12/27 04:28:57;;;;;;;35.28;20.42;;;8.20;99.90;;;;;;5030780;28;20104;-58
2021/12/27 04:31:23;;;;;;;39.83;22.42;;;8.30;99.90;;;;;;5031820;28;20030;-58
2021/12/27 04:33:48;;;;;;;48.25;23.00;;;8.20;99.90;;;;;;5032009;28;20396;-58
2021/12/27 04:36:14;;;;;;;49.63;25.73;;;8.20;99.90;;;;;;5031647;28;20036;-58
2021/12/27 04:38:42;;;;;;;51.60;25.48;;;8.20;99.90;;;;;;5031811;28;20022;-58
2021/12/27 04:41:10;;;;;;;47.08;24.77;;;8.20;99.90;;;;;;5030271;28;20029;-58
2021/12/27 04:43:36;;;;;;;43.70;20.40;;;8.20;99.90;;;;;;5032173;28;20025;-58
2021/12/27 04:46:04;;;;;;;49.53;23.50;;;8.20;99.90;;;;;;5030181;28;20234;-58
2021/12/27 04:48:30;;;;;;;49.30;24.90;;;8.20;99.90;;;;;;5031739;28;20021;-58
2021/12/27 04:50:56;;;;;;;49.65;24.20;;;8.20;99.90;;;;;;5031723;28;20029;-58
2021/12/27 04:53:22;;;;;;;42.30;21.98;;;8.20;99.90;;;;;;5031713;28;20108;-58
2021/12/27 04:55:48;;;;;;;39.95;22.38;;;8.20;99.90;;;;;;5030670;28;20073;-58
2021/12/27 04:58:16;;;;;;;36.00;19.30;;;8.30;99.90;;;;;;5032093;28;20435;-58
2021/12/27 05:00:43;;;;;;;37.80;20.90;;;8.40;99.90;;;;;;5031848;28;20017;-59
2021/12/27 05:03:09;;;;;;;32.42;17.23;;;8.40;99.90;;;;;;5032160;28;20056;-59
2021/12/27 05:05:36;;;;;;;33.50;18.92;;;8.40;99.90;;;;;;5029673;28;20124;-59
2021/12/27 05:08:03;;;;;;;33.45;19.08;;;8.40;99.90;;;;;;5031825;28;20403;-59
2021/12/27 05:10:30;;;;;;;32.63;19.08;;;8.40;99.90;;;;;;5030157;28;20112;-59
2021/12/27 05:12:56;;;;;;;29.25;17.23;;;8.40;99.90;;;;;;5031383;28;20018;-59
2021/12/27 05:15:22;;;;;;;30.55;17.70;;;8.40;99.90;;;;;;5031487;28;20025;-59
2021/12/27 05:17:48;;;;;;;31.20;17.58;;;8.50;99.90;;;;;;5029803;28;20113;-59
2021/12/27 05:20:14;;;;;;;25.67;16.58;;;8.50;99.90;;;;;;5031528;28;20052;-59
2021/12/27 05:22:40;;;;;;;28.27;16.73;;;8.50;99.90;;;;;;5030219;28;20398;-59
2021/12/27 05:25:07;;;;;;;21.73;14.40;;;8.50;99.90;;;;;;5029996;28;20032;-58
2021/12/27 05:27:33;;;;;;;23.15;14.75;;;8.50;99.90;;;;;;5031167;28;20037;-59
2021/12/27 05:29:59;;;;;;;22.60;14.50;;;8.50;99.90;;;;;;5031237;28;20112;-58
2021/12/27 05:32:24;;;;;;;21.08;14.23;;;8.50;99.90;;;;;;5031137;28;20073;-59
2021/12/27 05:34:50;;;;;;;20.13;13.80;;;8.50;99.90;;;;;;5031092;28;20033;-58
2021/12/27 05:37:16;;;;;;;20.83;14.27;;;8.50;99.90;;;;;;5029445;28;20060;-59
2021/12/27 05:39:42;;;;;;;23.10;13.63;;;8.50;99.90;;;;;;5031061;28;20025;-59
2021/12/27 05:42:08;;;;;;;22.52;13.55;;;8.60;99.90;;;;;;5036046;28;20021;-59
2021/12/27 05:44:34;;;;;;;22.77;14.07;;;8.60;99.90;;;;;;5037492;28;20026;-59
2021/12/27 05:46:59;;;;;;;19.13;12.98;;;8.60;99.90;;;;;;5037064;28;20030;-59
2021/12/27 05:49:25;;;;;;;25.50;13.30;;;8.70;99.90;;;;;;5037112;28;20030;-58
2021/12/27 05:51:52;;;;;;;24.65;12.85;;;8.70;99.90;;;;;;5037467;28;20089;-58
2021/12/27 05:54:20;;;;;;;22.95;13.20;;;8.60;99.90;;;;;;5037299;28;20398;-59
2021/12/27 05:56:47;;;;;;;26.00;12.88;;;8.60;99.90;;;;;;5036998;28;20029;-59
2021/12/27 05:59:15;;;;;;;19.67;12.65;;;8.60;99.90;;;;;;5037126;28;20025;-59
2021/12/27 06:01:41;;;;;;;21.27;11.95;;;8.60;99.90;;;;;;5036971;28;20100;-59
2021/12/27 06:04:06;;;;;;;18.98;13.10;;;8.60;99.90;;;;;;5037348;28;20110;-59
2021/12/27 06:06:32;;;;;;;24.70;13.13;;;8.70;99.90;;;;;;5037486;28;20037;-59
2021/12/27 06:08:57;;;;;;;25.90;12.82;;;8.80;99.90;;;;;;5035448;28;20061;-59
2021/12/27 06:11:23;;;;;;;18.35;12.73;;;8.90;99.90;;;;;;5036768;28;20108;-59
2021/12/27 06:13:49;;;;;;;23.60;13.07;;;8.90;99.90;;;;;;5036841;28;20022;-59
2021/12/27 06:16:15;;;;;;;21.65;13.02;;;8.90;99.90;;;;;;5036777;28;20032;-59
2021/12/27 06:18:41;;;;;;;27.02;13.70;;;8.90;99.90;;;;;;5035863;28;20021;-59
2021/12/27 06:21:06;;;;;;;25.98;13.68;;;8.90;99.90;;;;;;5037543;28;20544;-59
2021/12/27 06:23:32;;;;;;;24.25;13.73;;;9.10;99.90;;;;;;5037210;28;20049;-59
2021/12/27 06:25:59;;;;;;;24.30;13.65;;;9.10;99.90;;;;;;5036818;28;20041;-59
2021/12/27 06:28:24;;;;;;;22.63;13.43;;;9.00;99.90;;;;;;5036856;28;20036;-59
2021/12/27 06:30:50;;;;;;;17.48;12.65;;;8.90;99.90;;;;;;5036576;28;20104;-59
2021/12/27 06:33:16;;;;;;;26.02;13.05;;;8.70;99.90;;;;;;5035662;28;20109;-59
2021/12/27 06:35:42;;;;;;;19.33;12.40;;;8.70;99.90;;;;;;5036633;28;20033;-59
2021/12/27 06:38:08;;;;;;;20.85;12.85;;;8.60;99.90;;;;;;5037218;28;20021;-59
2021/12/27 06:40:34;;;;;;;17.80;11.93;;;8.60;99.90;;;;;;5036993;28;20104;-59
2021/12/27 06:42:59;;;;;;;23.35;12.57;;;8.60;99.90;;;;;;5037035;28;20590;-59
2021/12/27 06:45:26;;;;;;;19.83;11.50;;;8.60;99.90;;;;;;5037062;28;20390;-59
2021/12/27 06:47:51;;;;;;;20.35;11.20;;;8.60;99.90;;;;;;5037117;28;20164;-59
2021/12/27 06:50:17;;;;;;;20.73;12.55;;;8.50;99.90;;;;;;5036848;28;20116;-59
2021/12/27 06:52:43;;;;;;;20.52;11.55;;;8.50;99.90;;;;;;5033530;28;20029;-59
2021/12/27 06:55:10;;;;;;;17.73;10.60;;;8.40;99.90;;;;;;5032513;28;20379;-59
2021/12/27 06:57:37;;;;;;;15.95;9.85;;;8.40;99.90;;;;;;5033854;28;20490;-59
2021/12/27 07:00:06;;;;;;;17.20;10.38;;;8.40;99.90;;;;;;5032396;28;20518;-59
2021/12/27 07:02:32;;;;;;;16.15;9.57;;;8.30;99.90;;;;;;5033366;28;20105;-59
2021/12/27 07:04:57;;;;;;;16.73;10.98;;;8.40;99.90;;;;;;5033683;28;20147;-59
2021/12/27 07:07:23;;;;;;;16.20;10.85;;;8.30;99.90;;;;;;5033626;28;20037;-59
2021/12/27 07:09:49;;;;;;;15.65;10.32;;;8.40;99.90;;;;;;5033246;28;20037;-59
2021/12/27 07:12:15;;;;;;;15.10;9.57;;;8.30;99.90;;;;;;5033774;28;20025;-59
2021/12/27 07:14:41;;;;;;;13.77;10.05;;;8.30;99.90;;;;;;5032936;28;20530;-59
2021/12/27 07:17:07;;;;;;;17.10;10.48;;;8.30;99.90;;;;;;5033317;28;20021;-59
2021/12/27 07:19:33;;;;;;;15.75;9.63;;;8.30;99.90;;;;;;5033252;28;20033;-59
2021/12/27 07:21:59;;;;;;;17.30;9.80;;;8.40;99.90;;;;;;5032934;28;20382;-59
2021/12/27 07:24:24;;;;;;;15.80;10.85;;;8.40;99.90;;;;;;5031686;28;20061;-58
2021/12/27 07:26:52;;;;;;;12.98;10.05;;;8.40;99.90;;;;;;5033065;28;20053;-58
2021/12/27 07:29:18;;;;;;;17.27;10.68;;;8.30;99.90;;;;;;5033312;28;20518;-59
2021/12/27 07:31:44;;;;;;;14.30;10.80;;;8.40;99.90;;;;;;5033490;28;20021;-59
2021/12/27 07:34:10;;;;;;;16.27;11.57;;;8.30;99.90;;;;;;5031801;28;20029;-59
2021/12/27 07:36:35;;;;;;;18.13;11.85;;;8.40;99.90;;;;;;5032956;28;20429;-59
2021/12/27 07:39:02;;;;;;;15.23;11.15;;;8.40;99.90;;;;;;5033075;28;20056;-59
2021/12/27 07:41:28;;;;;;;15.57;11.30;;;8.40;99.90;;;;;;5033126;28;20483;-59
2021/12/27 07:43:55;;;;;;;15.60;10.98;;;8.40;99.90;;;;;;5032956;28;20036;-59
2021/12/27 07:46:21;;;;;;;16.63;10.77;;;8.50;99.90;;;;;;5032784;28;20071;-59
2021/12/27 07:48:47;;;;;;;17.10;10.30;;;8.50;99.90;;;;;;5032953;28;20071;-59
2021/12/27 07:51:12;;;;;;;16.20;10.38;;;8.60;99.90;;;;;;5033026;28;20041;-59
2021/12/27 07:53:38;;;;;;;12.23;9.40;;;8.60;99.90;;;;;;5032812;28;20100;-59
2021/12/27 07:56:06;;;;;;;13.90;10.52;;;8.60;99.90;;;;;;5032677;28;20029;-59
2021/12/27 07:58:32;;;;;;;15.43;10.75;;;8.60;99.90;;;;;;5032239;28;20176;-59
2021/12/27 08:00:57;;;;;;;14.48;9.75;;;8.60;99.90;;;;;;5032322;28;20502;-59
2021/12/27 08:03:23;;;;;;;14.95;10.38;;;8.60;99.90;;;;;;5032393;28;20053;-59
2021/12/27 08:05:48;;;;;;;17.45;10.30;;;8.70;99.90;;;;;;5032267;28;20108;-59
2021/12/27 08:08:15;;;;;;;16.50;10.15;;;8.70;99.90;;;;;;5032547;28;20021;-59
2021/12/27 08:10:40;;;;;;;16.38;9.45;;;8.70;99.90;;;;;;5032240;28;20544;-59
2021/12/27 08:13:06;;;;;;;15.82;9.73;;;8.70;99.90;;;;;;5032665;28;20029;-59
2021/12/27 08:15:32;;;;;;;18.73;10.57;;;8.70;99.90;;;;;;5032238;28;20103;-59
2021/12/27 08:17:58;;;;;;;19.33;9.75;;;8.70;99.90;;;;;;5030735;28;20032;-59
2021/12/27 08:20:23;;;;;;;17.58;10.63;;;8.70;99.90;;;;;;5032101;28;20030;-59
2021/12/27 08:22:49;;;;;;;17.08;10.35;;;8.80;99.90;;;;;;5032159;28;20100;-59
2021/12/27 08:25:16;;;;;;;21.35;10.38;;;8.80;99.90;;;;;;5031967;28;20413;-59
2021/12/27 08:27:44;;;;;;;22.20;11.05;;;8.80;99.90;;;;;;5032373;28;20133;-59
2021/12/27 08:30:10;;;;;;;16.65;9.10;;;8.80;99.90;;;;;;5032200;28;20494;-59
2021/12/27 08:32:39;;;;;;;18.55;9.68;;;8.80;99.90;;;;;;5032186;28;20026;-59
2021/12/27 08:35:06;;;;;;;20.55;10.23;;;8.80;99.90;;;;;;5030344;28;20029;-58
2021/12/27 08:37:32;;;;;;;19.27;10.30;;;8.80;99.90;;;;;;5028230;28;20026;-59
2021/12/27 08:39:59;;;;;;;21.55;10.52;;;8.80;99.90;;;;;;5022937;28;20030;-59
2021/12/27 08:42:25;;;;;;;17.02;9.98;;;8.80;99.90;;;;;;5020774;28;20026;-59
2021/12/27 08:44:50;;;;;;;14.02;9.07;;;8.80;99.90;;;;;;5030856;28;20029;-59
2021/12/27 08:47:16;;;;;;;16.52;9.13;;;8.80;99.90;;;;;;5032466;28;20030;-59
2021/12/27 08:49:43;;;;;;;18.77;9.48;;;8.80;99.90;;;;;;5028174;28;20029;-59
2021/12/27 08:52:09;;;;;;;17.77;9.80;;;8.90;99.90;;;;;;5026013;28;20162;-59
2021/12/27 08:54:35;;;;;;;14.27;8.93;;;8.90;99.90;;;;;;5047037;28;20159;-58
2021/12/27 08:57:03;;;;;;;17.23;9.70;;;8.90;99.90;;;;;;5011760;28;20105;-59
2021/12/27 08:59:29;;;;;;;17.05;9.32;;;8.90;99.90;;;;;;5011765;28;20022;-59
2021/12/27 09:01:54;;;;;;;14.18;8.82;;;8.90;99.90;;;;;;5045651;28;20417;-59
2021/12/27 09:04:20;;;;;;;11.95;8.43;;;9.00;99.90;;;;;;5022367;28;20516;-59
2021/12/27 09:06:46;;;;;;;14.07;7.47;;;9.10;99.90;;;;;;5012547;28;20072;-59
2021/12/27 09:09:11;;;;;;;14.30;8.40;;;9.20;99.90;;;;;;5023009;28;20358;-59
2021/12/27 09:11:37;;;;;;;12.95;8.05;;;9.10;99.90;;;;;;5026560;28;20033;-58
2021/12/27 09:14:03;;;;;;;13.07;8.55;;;9.10;99.90;;;;;;5014770;28;20034;-59
2021/12/27 09:16:28;;;;;;;11.32;8.35;;;9.10;99.90;;;;;;5015848;28;20036;-59
2021/12/27 09:18:54;;;;;;;11.07;8.20;;;9.20;99.90;;;;;;5011331;28;20037;-59
2021/12/27 09:21:20;;;;;;;11.65;7.68;;;9.30;99.90;;;;;;5020934;28;20509;-59
2021/12/27 09:23:45;;;;;;;11.32;8.13;;;9.30;99.90;;;;;;5030868;28;20029;-59
2021/12/27 09:26:11;;;;;;;11.90;8.07;;;9.30;99.90;;;;;;5029011;28;20041;-59
2021/12/27 09:28:37;;;;;;;11.82;8.35;;;9.20;99.90;;;;;;5031130;28;20437;-58
2021/12/27 09:31:02;;;;;;;10.90;8.27;;;9.20;99.90;;;;;;5015729;28;20045;-58
2021/12/27 09:33:28;;;;;;;11.45;7.50;;;9.20;99.90;;;;;;5009841;28;20030;-59
2021/12/27 09:35:54;;;;;;;12.07;7.90;;;9.20;99.90;;;;;;5018887;28;20030;-58
2021/12/27 09:38:20;;;;;;;11.02;8.07;;;9.30;99.90;;;;;;5014884;28;20064;-59
2021/12/27 09:40:46;;;;;;;10.30;9.02;;;9.20;99.90;;;;;;5010943;28;20061;-58
2021/12/27 09:43:11;;;;;;;11.20;8.20;;;9.30;99.90;;;;;;5011459;28;20649;-58
2021/12/27 09:45:37;;;;;;;12.15;8.57;;;9.30;99.90;;;;;;5011262;28;20072;-58
2021/12/27 09:48:03;;;;;;;11.07;8.13;;;9.30;99.90;;;;;;5011252;28;20105;-58
2021/12/27 09:50:40;;;;;;;10.93;8.40;;;9.30;99.90;;;;;;5009906;28;20446;-58
2021/12/27 09:53:06;;;;;;;15.18;9.13;;;9.40;99.90;;;;;;5011139;28;20045;-59
2021/12/27 09:55:32;;;;;;;11.27;7.85;;;9.40;99.90;;;;;;5010986;28;20025;-59
2021/12/27 09:57:59;;;;;;;11.27;7.57;;;9.40;99.90;;;;;;5011329;28;20034;-58
2021/12/27 10:00:26;;;;;;;10.52;7.70;;;9.40;99.90;;;;;;5011082;28;20414;-59
2021/12/27 10:02:56;;;;;;;11.23;7.53;;;9.40;99.90;;;;;;5011125;28;20030;-59
2021/12/27 10:05:24;;;;;;;12.25;7.60;;;9.40;99.90;;;;;;5011092;28;20014;-58
2021/12/27 10:07:50;;;;;;;11.35;7.22;;;9.40;99.90;;;;;;5019616;28;20504;-59
2021/12/27 10:10:16;;;;;;;12.90;7.72;;;9.50;99.90;;;;;;5030032;28;20025;-58
2021/12/27 10:12:42;;;;;;;11.00;6.97;;;9.50;99.90;;;;;;5030418;28;20387;-58
2021/12/27 10:15:10;;;;;;;10.32;7.13;;;9.60;99.90;;;;;;5045870;28;20029;-59
2021/12/27 10:17:37;;;;;;;8.27;7.05;;;9.60;99.90;;;;;;5045573;28;20465;-59
2021/12/27 10:20:15;;;;;;;9.85;6.13;;;9.60;99.90;;;;;;5045418;28;20045;-59
2021/12/27 10:22:44;;;;;;;8.48;6.50;;;9.60;99.90;;;;;;5030518;28;20422;-59
2021/12/27 10:25:14;;;;;;;9.60;6.03;;;9.70;99.90;;;;;;5030682;28;20439;-58
2021/12/27 10:27:40;;;;;;;8.25;6.40;;;9.70;99.90;;;;;;5032073;28;20063;-59
2021/12/27 10:30:11;;;;;;;10.13;6.50;;;9.70;99.90;;;;;;5033318;28;20033;-59
2021/12/27 10:32:37;;;;;;;7.03;5.95;;;9.70;99.90;;;;;;5034796;28;20446;-59
2021/12/27 10:35:06;;;;;;;7.63;6.47;;;9.70;99.90;;;;;;5050191;28;20033;-59
2021/12/27 10:37:32;;;;;;;7.75;5.72;;;9.70;99.90;;;;;;5016928;28;20037;-59
2021/12/27 10:40:03;;;;;;;10.52;7.07;;;9.70;99.90;;;;;;5017016;28;20026;-59
2021/12/27 10:42:40;;;;;;;8.65;6.80;;;9.80;99.90;;;;;;5014370;28;20030;-59
2021/12/27 10:45:11;;;;;;;8.60;6.18;;;9.80;99.90;;;;;;5017745;28;20300;-59
2021/12/27 10:47:37;;;;;;;7.93;5.60;;;9.80;99.90;;;;;;5024063;28;20486;-59
2021/12/27 10:50:23;;;;;;;7.07;5.60;;;9.80;99.90;;;;;;5021165;28;20084;-59
2021/12/27 10:53:04;;;;;;;9.23;6.78;;;9.90;99.90;;;;;;5013817;28;20072;-59
2021/12/27 10:55:39;;;;;;;8.60;6.00;;;9.90;99.90;;;;;;5030389;28;20033;-59
2021/12/27 10:58:23;;;;;;;8.77;5.32;;;10.00;99.90;;;;;;5029665;28;20057;-59
2021/12/27 11:01:04;;;;;;;10.73;6.45;;;10.00;99.90;;;;;;5030343;28;20171;-59
2021/12/27 11:03:36;;;;;;;7.20;5.78;;;10.00;99.90;;;;;;5023817;28;20478;-59
2021/12/27 11:06:04;;;;;;;8.38;6.18;;;10.00;99.90;;;;;;5032043;28;20064;-59
2021/12/27 11:08:32;;;;;;;9.27;6.75;;;10.00;99.90;;;;;;5023675;28;20083;-59
2021/12/27 11:10:59;;;;;;;8.70;6.88;;;10.00;99.90;;;;;;5018673;28;20140;-59
2021/12/27 11:13:26;;;;;;;9.38;6.25;;;10.00;99.90;;;;;;5014955;28;20022;-59
2021/12/27 11:15:52;;;;;;;7.75;5.47;;;10.00;99.90;;;;;;5014666;28;20034;-59
2021/12/27 11:18:18;;;;;;;6.40;5.40;;;10.10;99.90;;;;;;5013835;28;20029;-59
2021/12/27 11:20:52;;;;;;;9.07;5.30;;;10.10;99.90;;;;;;5014572;28;20108;-59
2021/12/27 11:23:20;;;;;;;5.00;4.38;;;10.10;99.90;;;;;;5013040;28;20033;-59
2021/12/27 11:25:47;;;;;;;8.82;4.97;;;10.20;99.90;;;;;;5023434;28;20042;-59
2021/12/27 11:28:30;;;;;;;7.75;5.03;;;10.10;99.90;;;;;;5014706;28;20053;-59
2021/12/27 11:30:57;;;;;;;6.78;4.93;;;10.20;99.90;;;;;;5032058;28;20060;-59
2021/12/27 11:33:24;;;;;;;7.00;5.07;;;10.20;99.90;;;;;;5033129;28;20486;-59
2021/12/27 11:35:59;;;;;;;9.13;5.07;;;10.20;99.90;;;;;;5018419;28;20034;-59
2021/12/27 11:38:40;;;;;;;8.57;5.25;;;10.20;99.90;;;;;;5021285;28;20033;-59
2021/12/27 11:41:33;;;;;;;5.93;4.82;;;10.30;99.90;;;;;;5023482;28;20063;-59
2021/12/27 11:44:04;;;;;;;;;;;10.30;99.90;;;;;;5031898;28;20024;-59
2021/12/27 11:46:52;;;;;;;9.27;4.78;;;10.30;99.90;;;;;;5030738;28;19909;-59
2021/12/27 11:49:59;;;;;;;8.63;4.93;;;10.30;99.90;;;;;;5033627;28;20061;-59
2021/12/27 11:52:35;;;;;;;7.18;5.57;;;10.30;99.90;;;;;;5016051;28;20554;-59
2021/12/27 11:55:12;;;;;;;7.90;5.32;;;10.30;99.90;;;;;;5012076;28;20029;-59
2021/12/27 11:57:53;;;;;;;10.27;5.88;;;10.20;99.90;;;;;;5012610;28;20307;-59
2021/12/27 12:00:23;;;;;;;9.77;6.30;;;10.20;99.90;;;;;;5021416;28;20026;-60
2021/12/27 12:02:55;;;;;;;8.98;6.07;;;10.20;99.90;;;;;;5023291;28;20028;-61
2021/12/27 12:05:43;;;;;;;13.77;6.35;;;10.30;99.90;;;;;;5015038;28;20471;-59
2021/12/27 12:08:11;;;;;;;8.43;6.03;;;10.30;99.90;;;;;;5032379;28;20063;-59
2021/12/27 12:10:38;;;;;;;9.85;6.10;;;10.30;99.90;;;;;;5029334;28;20120;-59
2021/12/27 12:13:26;;;;;;;9.30;6.60;;;10.30;99.90;;;;;;5030734;28;20029;-59
2021/12/27 12:16:04;;;;;;;13.52;6.43;;;10.30;99.90;;;;;;5029724;28;20029;-59
2021/12/27 12:18:31;;;;;;;9.48;6.20;;;10.30;99.90;;;;;;5032136;28;20057;-59
2021/12/27 12:20:58;;;;;;;12.07;6.25;;;10.30;99.90;;;;;;5030424;28;20025;-59
2021/12/27 12:23:24;;;;;;;10.90;6.45;;;10.30;99.90;;;;;;5030181;28;20033;-59
2021/12/27 12:26:01;;;;;;;9.98;6.00;;;10.40;99.90;;;;;;5017566;28;20041;-60
2021/12/27 12:28:28;;;;;;;12.20;7.22;;;10.40;99.90;;;;;;5012023;28;20041;-60
2021/12/27 12:30:54;;;;;;;13.43;7.25;;;10.30;99.90;;;;;;5012974;28;20063;-59
2021/12/27 12:33:22;;;;;;;12.48;7.07;;;10.40;99.90;;;;;;5027628;28;20033;-59
2021/12/27 12:35:58;;;;;;;11.77;6.53;;;10.40;99.90;;;;;;5024491;28;20026;-60
2021/12/27 12:38:38;;;;;;;11.23;6.82;;;10.50;99.90;;;;;;5013089;28;20038;-59
2021/12/27 12:41:17;;;;;;;10.50;5.95;;;10.50;99.90;;;;;;5030059;28;20086;-59
2021/12/27 12:43:50;;;;;;;12.13;6.40;;;10.50;99.90;;;;;;5031682;28;20467;-59
2021/12/27 12:46:23;;;;;;;9.65;5.78;;;10.40;99.90;;;;;;5029769;28;20131;-59